Terminal Aerodrome Forecast
Issued by NWS Sterling, VA

Current Version | Previous Version | Graphics & Text | Print | Product List | Glossary On
Versions: 1 2 3 4 5 6 7 8 9 10 11 12 13 14 15 16 17 18 19 20 21 22
000
FTUS41 KLWX 211123
TAFMRB
TAF
KMRB 211123Z 2112/2212 22004KT 6SM -SHRA BR OVC080
     FM211500 26009KT P6SM BKN120
     FM211700 26010G16KT P6SM SCT090
     FM212300 30007KT P6SM SCT200
     FM220700 34006KT P6SM BKN130=

USA.gov is the U.S. government's official web portal to all federal, state and local government web resources and services.